Time;durP1;ratioP1;P1;durP2;ratioP2;P2;SDS_P1;SDS_P2;PMS_P1;PMS_P2;Temp;Humidity;BMP_temperature;BMP_pressure;BME280_temperature;BME280_humidity;BME280_pressure;Samples;Min_cycle;Max_cycle;Signal;HPM_P1;HPM_P2
2022/12/23 00:00:42;;;;;;;869.40;287.85;;;7.20;99.90;;;;;;5046294;28;20037;-80
2022/12/23 00:03:08;;;;;;;1172.05;597.80;;;7.30;99.90;;;;;;5051547;28;20018;-80
2022/12/23 00:05:38;;;;;;;1999.90;999.90;;;7.30;99.90;;;;;;5028344;28;20079;-80
2022/12/23 00:08:04;;;;;;;1190.43;539.75;;;7.20;99.90;;;;;;5043657;28;20041;-80
2022/12/23 00:10:30;;;;;;;1999.90;999.90;;;7.20;99.90;;;;;;5048640;28;20057;-80
2022/12/23 00:15:40;;;;;;;340.33;142.88;;;7.20;99.90;;;;;;5049541;28;20661;-80
2022/12/23 00:18:07;;;;;;;1566.97;785.85;;;7.20;99.90;;;;;;5048264;28;20040;-79
2022/12/23 00:20:33;;;;;;;1232.18;612.42;;;7.20;99.90;;;;;;5045820;28;20025;-82
2022/12/23 00:23:06;;;;;;;1999.90;999.90;;;7.20;99.90;;;;;;5048571;28;20021;-80
2022/12/23 00:25:39;;;;;;;1999.90;999.90;;;7.30;99.90;;;;;;5053160;28;20056;-82
2022/12/23 00:28:31;;;;;;;1255.70;565.00;;;7.30;99.90;;;;;;5034459;28;20079;-82
2022/12/23 00:31:05;;;;;;;1999.90;999.90;;;7.30;99.90;;;;;;5047917;28;20044;-80
2022/12/23 00:33:39;;;;;;;1002.60;463.08;;;7.40;99.90;;;;;;5056921;28;20025;-80
2022/12/23 00:36:23;;;;;;;1999.90;999.90;;;7.40;99.90;;;;;;5051305;28;20110;-80
2022/12/23 00:44:18;;;;;;;1156.32;466.23;;;7.40;99.90;;;;;;5051860;28;20071;-80
2022/12/23 00:46:43;;;;;;;1320.78;651.50;;;7.40;99.90;;;;;;5049965;28;20474;-79
2022/12/23 00:51:58;;;;;;;455.17;217.98;;;7.50;99.90;;;;;;5049061;28;20043;-84
2022/12/23 00:54:24;;;;;;;1999.90;999.90;;;7.40;99.90;;;;;;5054044;28;20029;-82
2022/12/23 00:56:51;;;;;;;1999.90;999.90;;;7.50;99.90;;;;;;5048323;28;20435;-82
2022/12/23 00:59:16;;;;;;;1622.45;797.58;;;7.50;99.90;;;;;;5048501;28;20052;-82
2022/12/23 01:07:11;;;;;;;1999.90;999.90;;;7.50;99.90;;;;;;5050564;28;20100;-82
2022/12/23 01:09:38;;;;;;;919.75;386.63;;;7.50;99.90;;;;;;5031615;28;20111;-84
2022/12/23 01:12:04;;;;;;;1999.90;999.90;;;7.50;99.90;;;;;;5032246;28;20056;-82
2022/12/23 01:14:30;;;;;;;1130.20;455.95;;;7.50;99.90;;;;;;5048213;28;20052;-81
2022/12/23 01:16:55;;;;;;;557.58;232.00;;;7.50;99.90;;;;;;5043619;28;20529;-81
2022/12/23 01:19:22;;;;;;;1999.90;999.90;;;7.60;99.90;;;;;;5049628;28;20090;-82
2022/12/23 01:21:48;;;;;;;1663.68;822.05;;;7.60;99.90;;;;;;5039749;28;20025;-83
2022/12/23 01:24:14;;;;;;;1999.90;999.90;;;7.60;99.90;;;;;;5031108;28;20044;-83
2022/12/23 01:26:39;;;;;;;1999.90;999.90;;;7.70;99.90;;;;;;5050660;28;20564;-80
2022/12/23 01:29:06;;;;;;;1999.90;999.90;;;7.80;99.90;;;;;;5052481;28;20036;-82
2022/12/23 01:31:31;;;;;;;1149.90;579.40;;;7.80;99.90;;;;;;5047305;28;20494;-81
2022/12/23 01:33:57;;;;;;;748.40;351.20;;;7.80;99.90;;;;;;5052450;28;20033;-79
2022/12/23 01:36:23;;;;;;;874.25;419.98;;;7.80;99.90;;;;;;5049169;28;20036;-83
2022/12/23 01:38:49;;;;;;;1999.90;999.90;;;7.80;99.90;;;;;;5048088;28;20044;-80
2022/12/23 01:44:48;;;;;;;1999.90;999.90;;;7.80;99.90;;;;;;5049680;28;20032;-81
2022/12/23 01:47:21;;;;;;;1999.90;999.90;;;7.80;99.90;;;;;;5040781;28;20028;-82
2022/12/23 01:49:48;;;;;;;1999.90;999.90;;;7.90;99.90;;;;;;5051215;28;20798;-81
2022/12/23 01:52:15;;;;;;;1677.95;814.92;;;7.90;99.90;;;;;;5041618;28;20029;-82
2022/12/23 01:54:42;;;;;;;1403.50;669.63;;;7.90;99.90;;;;;;5051513;28;20479;-81
2022/12/23 01:57:08;;;;;;;1999.90;999.90;;;8.00;99.90;;;;;;5051199;28;20064;-83
2022/12/23 02:05:04;;;;;;;1999.90;999.90;;;8.00;99.90;;;;;;5051132;28;20043;-79
2022/12/23 02:10:15;;;;;;;1999.90;999.90;;;8.00;99.90;;;;;;5046093;28;20143;-81
2022/12/23 02:12:57;;;;;;;1999.90;999.90;;;8.10;99.90;;;;;;5047482;28;20148;-82
2022/12/23 02:18:42;;;;;;;;;;;8.10;99.90;;;;;;5046752;28;20243;-80
2022/12/23 02:21:36;;;;;;;1999.90;999.90;;;8.10;99.90;;;;;;5047395;28;19959;-79
2022/12/23 02:24:02;;;;;;;1999.90;999.90;;;8.10;99.90;;;;;;5048205;28;20043;-80
2022/12/23 02:26:55;;;;;;;1999.90;999.90;;;8.10;99.90;;;;;;5048140;28;20036;-80
2022/12/23 02:29:45;;;;;;;1999.90;999.90;;;8.00;99.90;;;;;;5049507;28;20021;-81
2022/12/23 02:32:36;;;;;;;1999.90;999.90;;;8.10;99.90;;;;;;5044805;28;20028;-79
2022/12/23 02:35:14;;;;;;;1999.90;999.90;;;8.20;99.90;;;;;;5049867;28;20024;-78
2022/12/23 02:37:45;;;;;;;1127.95;543.17;;;8.30;99.90;;;;;;5044748;28;20032;-82
2022/12/23 02:40:37;;;;;;;1999.90;999.90;;;8.30;99.90;;;;;;5050280;28;20033;-81
2022/12/23 02:43:14;;;;;;;929.92;492.42;;;8.30;99.90;;;;;;5048067;28;20748;-80
2022/12/23 02:46:03;;;;;;;1675.72;836.67;;;8.40;99.90;;;;;;5050742;28;20103;-80
2022/12/23 02:48:50;;;;;;;541.92;198.52;;;8.40;99.90;;;;;;5043972;28;20043;-79
2022/12/23 02:51:21;;;;;;;1530.28;758.45;;;8.40;99.90;;;;;;5051095;28;20036;-82
2022/12/23 02:53:51;;;;;;;;;;;8.40;99.90;;;;;;5034227;28;20074;-80
2022/12/23 02:56:18;;;;;;;;;;;8.40;99.90;;;;;;5044563;28;20385;-81
2022/12/23 02:58:51;;;;;;;1999.90;999.90;;;8.50;99.90;;;;;;5050069;28;19925;-80
2022/12/23 03:01:18;;;;;;;1999.90;999.90;;;8.50;99.90;;;;;;5049022;28;20100;-81
2022/12/23 03:03:45;;;;;;;501.33;178.80;;;8.50;99.90;;;;;;5049751;28;20661;-79
2022/12/23 03:06:36;;;;;;;1999.90;999.90;;;8.60;99.90;;;;;;5047897;28;20017;-82
2022/12/23 03:09:02;;;;;;;1557.20;770.03;;;8.60;99.90;;;;;;5051523;28;20035;-82
2022/12/23 03:11:54;;;;;;;494.00;99.60;;;8.60;99.90;;;;;;5047372;28;20461;-82
2022/12/23 03:14:25;;;;;;;1999.90;999.90;;;8.70;99.90;;;;;;5046043;28;20029;-82
2022/12/23 03:16:58;;;;;;;1127.43;529.72;;;8.70;99.90;;;;;;5044217;28;20033;-81
2022/12/23 03:19:27;;;;;;;1486.35;698.88;;;8.70;99.90;;;;;;5047803;28;20039;-80
2022/12/23 03:22:08;;;;;;;1999.90;999.90;;;8.80;99.90;;;;;;5047164;28;20037;-80
2022/12/23 03:24:51;;;;;;;1999.90;999.90;;;8.80;99.90;;;;;;5051717;28;20129;-80
2022/12/23 03:27:35;;;;;;;1999.90;999.90;;;8.90;99.90;;;;;;5046258;28;20663;-80
2022/12/23 03:30:04;;;;;;;1999.90;999.90;;;8.80;99.90;;;;;;5046999;28;20125;-82
2022/12/23 03:32:35;;;;;;;1999.90;999.90;;;8.90;99.90;;;;;;5049909;28;20033;-84
2022/12/23 03:35:03;;;;;;;1999.90;999.90;;;8.90;99.90;;;;;;5047524;28;20071;-81
2022/12/23 03:37:32;;;;;;;1999.90;999.90;;;8.90;99.90;;;;;;5050318;28;20017;-84
2022/12/23 03:40:12;;;;;;;1999.90;999.90;;;8.90;99.90;;;;;;5030691;28;20040;-82
2022/12/23 03:42:41;;;;;;;1520.03;759.53;;;8.80;99.90;;;;;;5048856;28;20111;-81
2022/12/23 03:45:22;;;;;;;1999.90;999.90;;;8.80;99.90;;;;;;5023860;28;20029;-81
2022/12/23 03:47:54;;;;;;;1999.90;999.90;;;8.90;99.90;;;;;;5051391;28;20088;-82
2022/12/23 03:50:22;;;;;;;1999.90;999.90;;;8.90;99.90;;;;;;5049716;28;20059;-82
2022/12/23 03:52:54;;;;;;;1594.80;801.78;;;8.90;99.90;;;;;;5048276;28;20128;-83
2022/12/23 03:55:26;;;;;;;1999.90;999.90;;;8.80;99.90;;;;;;5054132;28;20446;-82
2022/12/23 03:58:00;;;;;;;1999.90;999.90;;;8.80;99.90;;;;;;5047932;28;20025;-84
2022/12/23 04:00:32;;;;;;;1999.90;999.90;;;9.00;99.90;;;;;;5052564;28;20102;-81
2022/12/23 04:03:18;;;;;;;1999.90;999.90;;;9.00;99.90;;;;;;5051033;28;20036;-81
2022/12/23 04:05:56;;;;;;;1999.90;999.90;;;9.00;99.90;;;;;;5048542;28;20029;-81
2022/12/23 04:08:27;;;;;;;1999.90;999.90;;;9.00;99.90;;;;;;5051811;28;20033;-83
2022/12/23 04:10:53;;;;;;;1999.90;999.90;;;9.00;99.90;;;;;;5032604;28;20403;-83
2022/12/23 04:13:18;;;;;;;1999.90;999.90;;;9.10;99.90;;;;;;5050874;28;20033;-80
2022/12/23 04:15:44;;;;;;;1999.90;999.90;;;9.10;99.90;;;;;;5049486;28;20402;-83
2022/12/23 04:18:10;;;;;;;1999.90;999.90;;;9.00;99.90;;;;;;5049493;28;20029;-82
2022/12/23 04:20:36;;;;;;;1999.90;999.90;;;9.10;99.90;;;;;;5049483;28;20045;-82
2022/12/23 04:23:02;;;;;;;1999.90;999.90;;;9.10;99.90;;;;;;5050533;28;20094;-80
2022/12/23 04:25:28;;;;;;;1999.90;999.90;;;9.10;99.90;;;;;;5050992;28;20024;-82
2022/12/23 04:27:53;;;;;;;1999.90;999.90;;;9.10;99.90;;;;;;5050737;28;20033;-81
2022/12/23 04:30:19;;;;;;;1999.90;999.90;;;9.20;99.90;;;;;;5050237;28;20087;-82
2022/12/23 04:32:44;;;;;;;1999.90;999.90;;;9.10;99.90;;;;;;5048540;28;20095;-83
2022/12/23 04:35:11;;;;;;;1999.90;999.90;;;9.10;99.90;;;;;;5032755;28;20052;-81
2022/12/23 04:37:37;;;;;;;1224.28;583.05;;;9.10;99.90;;;;;;5048123;28;20037;-82
2022/12/23 04:40:04;;;;;;;1999.90;999.90;;;9.10;99.90;;;;;;5050379;28;20079;-83
2022/12/23 04:42:30;;;;;;;1999.90;999.90;;;9.20;99.90;;;;;;5029903;28;20038;-81
2022/12/23 04:44:55;;;;;;;1999.90;999.90;;;9.10;99.90;;;;;;5052380;28;20041;-80
2022/12/23 04:47:22;;;;;;;1999.90;999.90;;;9.10;99.90;;;;;;5052850;28;20029;-83
2022/12/23 04:49:48;;;;;;;1999.90;999.90;;;9.10;99.90;;;;;;5038920;28;20039;-83
2022/12/23 04:52:13;;;;;;;1999.90;999.90;;;9.10;99.90;;;;;;5052501;28;20415;-82
2022/12/23 04:54:39;;;;;;;1999.90;999.90;;;9.20;99.90;;;;;;5049612;28;20036;-83
2022/12/23 04:57:08;;;;;;;1999.90;999.90;;;9.20;99.90;;;;;;5049067;28;20040;-80
2022/12/23 04:59:33;;;;;;;1999.90;999.90;;;9.10;99.90;;;;;;5031878;28;20049;-81
2022/12/23 05:01:59;;;;;;;1999.90;999.90;;;9.10;99.90;;;;;;5027805;28;20381;-80
2022/12/23 05:04:26;;;;;;;943.20;435.25;;;9.20;99.90;;;;;;5028910;28;20041;-81
2022/12/23 05:06:51;;;;;;;1999.90;999.90;;;9.20;99.90;;;;;;5030018;28;20044;-80
2022/12/23 05:09:17;;;;;;;1999.90;999.90;;;9.20;99.90;;;;;;5028674;28;20033;-79
2022/12/23 05:11:43;;;;;;;1999.90;999.90;;;9.20;99.90;;;;;;5028339;28;20051;-81
2022/12/23 05:14:09;;;;;;;1999.90;999.90;;;9.30;99.90;;;;;;5030168;28;20095;-82
2022/12/23 05:16:35;;;;;;;1999.90;999.90;;;9.30;99.90;;;;;;5029753;28;20146;-80
2022/12/23 05:19:01;;;;;;;1999.90;999.90;;;9.20;99.90;;;;;;5028590;28;20124;-83
2022/12/23 05:21:26;;;;;;;1999.90;999.90;;;9.20;99.90;;;;;;5026263;28;20534;-83
2022/12/23 05:23:52;;;;;;;1999.90;999.90;;;9.20;99.90;;;;;;5029574;28;20091;-81
2022/12/23 05:26:18;;;;;;;1999.90;999.90;;;9.20;99.90;;;;;;5028756;28;20503;-80
2022/12/23 05:28:44;;;;;;;1999.90;999.90;;;9.20;99.90;;;;;;5029164;28;20031;-80
2022/12/23 05:31:11;;;;;;;1999.90;999.90;;;9.20;99.90;;;;;;5024239;28;20030;-82
2022/12/23 05:33:37;;;;;;;1999.90;999.90;;;9.10;99.90;;;;;;5029266;28;20773;-80
2022/12/23 05:36:03;;;;;;;1999.90;999.90;;;9.10;99.90;;;;;;5029587;28;20063;-83
2022/12/23 05:38:29;;;;;;;1999.90;999.90;;;9.10;99.90;;;;;;5029400;28;20029;-82
2022/12/23 05:40:55;;;;;;;1999.90;999.90;;;9.10;99.90;;;;;;5029127;28;20505;-81
2022/12/23 05:43:21;;;;;;;1999.90;999.90;;;9.10;99.90;;;;;;5017937;28;20029;-84
2022/12/23 05:45:48;;;;;;;1999.90;999.90;;;9.10;99.90;;;;;;5029101;28;20030;-81
2022/12/23 05:48:13;;;;;;;1999.90;999.90;;;9.10;99.90;;;;;;5024837;28;20025;-81
2022/12/23 05:50:40;;;;;;;1999.90;999.90;;;9.10;99.90;;;;;;5029274;28;20080;-80
2022/12/23 05:53:07;;;;;;;1999.90;999.90;;;9.10;99.90;;;;;;5029015;28;20022;-83
2022/12/23 05:55:34;;;;;;;1999.90;999.90;;;10.50;99.90;;;;;;5027763;28;20029;-84
2022/12/23 05:58:00;;;;;;;1999.90;999.90;;;10.00;99.90;;;;;;5029710;28;20049;-82
2022/12/23 06:00:26;;;;;;;1999.90;999.90;;;9.80;99.90;;;;;;5030516;28;20079;-83
2022/12/23 06:02:52;;;;;;;1999.90;999.90;;;9.90;99.90;;;;;;5052079;28;20028;-79
2022/12/23 06:05:18;;;;;;;1999.90;999.90;;;9.90;99.90;;;;;;5046613;28;20029;-81
2022/12/23 06:07:43;;;;;;;1999.90;999.90;;;9.90;99.90;;;;;;5050924;28;20037;-82
2022/12/23 06:10:10;;;;;;;1999.90;999.90;;;9.90;99.90;;;;;;5034419;28;20064;-83
2022/12/23 06:12:37;;;;;;;1999.90;999.90;;;9.90;99.90;;;;;;5045318;28;20033;-83
2022/12/23 06:15:03;;;;;;;1999.90;999.90;;;10.00;99.90;;;;;;5045930;28;20060;-83
2022/12/23 06:17:29;;;;;;;1999.90;999.90;;;9.90;99.90;;;;;;5041726;28;20132;-85
2022/12/23 06:19:55;;;;;;;1999.90;999.90;;;9.60;99.90;;;;;;5034881;28;20466;-83
2022/12/23 06:22:22;;;;;;;1999.90;999.90;;;9.50;99.90;;;;;;5047980;28;20035;-81
2022/12/23 06:24:48;;;;;;;1999.90;999.90;;;9.60;99.90;;;;;;5047099;28;20036;-81
2022/12/23 06:27:14;;;;;;;1999.90;999.90;;;9.60;99.90;;;;;;5048154;28;20029;-82
2022/12/23 06:29:41;;;;;;;1999.90;999.90;;;9.70;99.90;;;;;;5048346;28;20044;-80
2022/12/23 06:32:07;;;;;;;1999.90;999.90;;;9.70;99.90;;;;;;5044576;28;20029;-82
2022/12/23 06:34:33;;;;;;;1999.90;999.90;;;9.80;99.90;;;;;;5047143;28;20538;-83
2022/12/23 06:36:58;;;;;;;1066.35;523.97;;;9.70;99.90;;;;;;5045753;28;20044;-83
2022/12/23 06:39:24;;;;;;;1999.90;999.90;;;9.80;99.90;;;;;;5047720;28;20029;-85
2022/12/23 06:41:50;;;;;;;1999.90;999.90;;;9.70;99.90;;;;;;5046443;28;20644;-83
2022/12/23 06:44:15;;;;;;;1999.90;999.90;;;9.80;99.90;;;;;;5026502;28;20025;-82
2022/12/23 06:46:41;;;;;;;1999.90;999.90;;;9.80;99.90;;;;;;5045287;28;20057;-80
2022/12/23 06:49:07;;;;;;;1999.90;999.90;;;9.80;99.90;;;;;;5050228;28;20656;-80
2022/12/23 06:51:34;;;;;;;1999.90;999.90;;;9.90;99.90;;;;;;5046080;28;20496;-83
2022/12/23 06:54:00;;;;;;;1999.90;999.90;;;9.80;99.90;;;;;;5047050;28;20037;-82
2022/12/23 06:56:26;;;;;;;1999.90;999.90;;;9.90;99.90;;;;;;5048284;28;20028;-80
2022/12/23 06:58:53;;;;;;;1999.90;999.90;;;9.90;99.90;;;;;;5045985;28;20064;-83
2022/12/23 07:01:20;;;;;;;1999.90;999.90;;;9.90;99.90;;;;;;5045713;28;20041;-82
2022/12/23 07:03:45;;;;;;;1999.90;999.90;;;9.90;99.90;;;;;;5046272;28;20040;-81
2022/12/23 07:06:11;;;;;;;1999.90;999.90;;;9.90;99.90;;;;;;5047357;28;20029;-79
2022/12/23 07:08:37;;;;;;;1999.90;999.90;;;9.80;99.90;;;;;;5046364;28;20148;-79
2022/12/23 07:11:04;;;;;;;1999.90;999.90;;;9.80;99.90;;;;;;5050233;28;20064;-81
2022/12/23 07:13:31;;;;;;;1999.90;999.90;;;9.80;99.90;;;;;;5049091;28;20021;-80
2022/12/23 07:16:03;;;;;;;1999.90;999.90;;;9.90;99.90;;;;;;5046830;28;20522;-79
2022/12/23 07:18:30;;;;;;;1999.90;999.90;;;9.80;99.90;;;;;;5053204;28;20030;-81
2022/12/23 07:20:58;;;;;;;1999.90;999.90;;;9.90;99.90;;;;;;5050198;28;20245;-82
2022/12/23 07:23:24;;;;;;;1999.90;999.90;;;9.90;99.90;;;;;;5055533;28;20058;-79
2022/12/23 07:25:50;;;;;;;1999.90;999.90;;;9.90;99.90;;;;;;5051574;28;20037;-79
2022/12/23 07:28:16;;;;;;;1999.90;999.90;;;9.80;99.90;;;;;;5048046;28;20032;-82
2022/12/23 07:30:42;;;;;;;1999.90;999.90;;;9.80;99.90;;;;;;5046013;28;20576;-80
2022/12/23 07:33:08;;;;;;;1999.90;999.90;;;9.70;99.90;;;;;;5050341;28;20033;-80
2022/12/23 07:35:34;;;;;;;1999.90;999.90;;;9.80;99.90;;;;;;5034361;28;20033;-81
2022/12/23 07:37:59;;;;;;;1999.90;999.90;;;9.70;99.90;;;;;;5032768;28;20041;-81
2022/12/23 07:40:25;;;;;;;1999.90;999.90;;;9.70;99.90;;;;;;5052273;28;20402;-80
2022/12/23 07:42:57;;;;;;;1999.90;999.90;;;9.90;99.90;;;;;;5049461;28;20032;-79
2022/12/23 07:45:25;;;;;;;1999.90;999.90;;;9.90;99.90;;;;;;5038476;28;20060;-78
2022/12/23 07:48:00;;;;;;;1999.90;999.90;;;9.90;99.90;;;;;;5049795;28;20021;-81
2022/12/23 07:50:27;;;;;;;1999.90;999.90;;;9.90;99.90;;;;;;5050362;28;20033;-80
2022/12/23 07:52:53;;;;;;;1999.90;999.90;;;9.90;99.90;;;;;;5051526;28;20071;-81
2022/12/23 07:55:21;;;;;;;1999.90;999.90;;;9.90;99.90;;;;;;5049852;28;20056;-80
2022/12/23 07:57:48;;;;;;;1999.90;999.90;;;10.00;99.90;;;;;;5052031;28;20033;-80
2022/12/23 08:00:14;;;;;;;1999.90;999.90;;;10.00;99.90;;;;;;5047602;28;20076;-79
2022/12/23 08:02:40;;;;;;;1999.90;999.90;;;10.00;99.90;;;;;;5052895;28;20036;-79
2022/12/23 08:05:07;;;;;;;1999.90;999.90;;;10.00;99.90;;;;;;5052040;28;20037;-77
2022/12/23 08:07:34;;;;;;;1999.90;999.90;;;9.90;99.90;;;;;;5049292;28;20029;-80
2022/12/23 08:10:00;;;;;;;1999.90;999.90;;;10.00;99.90;;;;;;5049292;28;20029;-80
2022/12/23 08:12:26;;;;;;;1999.90;999.90;;;10.00;99.90;;;;;;5044341;28;20036;-82
2022/12/23 08:14:51;;;;;;;1999.90;999.90;;;10.00;99.90;;;;;;5049620;28;20033;-81
2022/12/23 08:17:20;;;;;;;1999.90;999.90;;;10.00;99.90;;;;;;5051935;28;20861;-80
2022/12/23 08:19:47;;;;;;;1999.90;999.90;;;10.10;99.90;;;;;;5044231;28;20039;-80
2022/12/23 08:22:13;;;;;;;1999.90;999.90;;;10.10;99.90;;;;;;5049633;28;20108;-78
2022/12/23 08:24:38;;;;;;;1999.90;999.90;;;10.00;99.90;;;;;;5045969;28;20107;-79
2022/12/23 08:27:04;;;;;;;1999.90;999.90;;;10.10;99.90;;;;;;5047503;28;20091;-78
2022/12/23 08:29:30;;;;;;;1999.90;999.90;;;10.10;99.90;;;;;;5033248;28;20056;-78
2022/12/23 08:31:56;;;;;;;1999.90;999.90;;;10.20;99.90;;;;;;5049339;28;20041;-83
2022/12/23 08:34:22;;;;;;;1999.90;999.90;;;10.20;99.90;;;;;;5035768;28;20083;-78
2022/12/23 08:36:47;;;;;;;1999.90;999.90;;;10.30;99.90;;;;;;5054089;28;20456;-78
2022/12/23 08:39:14;;;;;;;1999.90;999.90;;;10.30;99.90;;;;;;5051525;28;20403;-82
2022/12/23 08:41:43;;;;;;;1999.90;999.90;;;10.30;99.90;;;;;;5032353;28;20072;-79
2022/12/23 08:44:09;;;;;;;1999.90;999.90;;;10.40;99.90;;;;;;5058434;28;20550;-77
2022/12/23 08:46:35;;;;;;;1999.90;999.90;;;10.50;99.90;;;;;;5050212;28;20047;-78
2022/12/23 08:49:01;;;;;;;1999.90;999.90;;;10.50;99.90;;;;;;5034607;28;20039;-79
2022/12/23 08:51:28;;;;;;;1999.90;999.90;;;10.50;99.90;;;;;;5047942;28;20029;-79
2022/12/23 08:53:56;;;;;;;1999.90;999.90;;;10.50;99.90;;;;;;5048863;28;20029;-79
2022/12/23 08:56:26;;;;;;;1999.90;999.90;;;10.60;99.90;;;;;;5050242;28;20023;-78
2022/12/23 08:58:53;;;;;;;1999.90;999.90;;;10.60;99.90;;;;;;5050879;28;20140;-78
2022/12/23 09:01:20;;;;;;;1999.90;999.90;;;10.60;99.90;;;;;;5050470;28;20035;-78
2022/12/23 09:03:46;;;;;;;1023.72;407.17;;;10.60;99.90;;;;;;5051447;28;20063;-78
2022/12/23 09:06:19;;;;;;;1999.90;999.90;;;10.60;99.90;;;;;;5051773;28;20369;-78
2022/12/23 09:08:45;;;;;;;1999.90;999.90;;;10.60;99.90;;;;;;5037940;28;20560;-78
2022/12/23 09:11:28;;;;;;;1999.90;999.90;;;10.70;99.90;;;;;;5017409;28;20061;-78
2022/12/23 09:13:54;;;;;;;1999.90;999.90;;;10.70;99.90;;;;;;5039003;28;20095;-78
2022/12/23 09:16:22;;;;;;;1999.90;999.90;;;10.70;99.90;;;;;;5039223;28;20075;-79
2022/12/23 09:18:47;;;;;;;1999.90;999.90;;;10.60;99.90;;;;;;5051841;28;20090;-84
2022/12/23 09:21:17;;;;;;;1999.90;999.90;;;10.60;99.90;;;;;;5050673;28;20050;-79
2022/12/23 09:23:45;;;;;;;1999.90;999.90;;;10.70;99.90;;;;;;5050665;28;20035;-78
2022/12/23 09:26:20;;;;;;;1999.90;999.90;;;10.80;99.90;;;;;;5033255;28;20048;-80
2022/12/23 09:28:46;;;;;;;1205.60;565.28;;;10.80;99.90;;;;;;5029483;28;20126;-82
2022/12/23 09:31:12;;;;;;;1999.90;999.90;;;10.90;99.90;;;;;;5048949;28;20068;-77
2022/12/23 09:33:39;;;;;;;1999.90;999.90;;;10.90;99.90;;;;;;5047911;28;20465;-77
2022/12/23 09:36:05;;;;;;;1999.90;999.90;;;10.90;99.90;;;;;;5052009;28;20091;-79
2022/12/23 09:38:31;;;;;;;1999.90;999.90;;;10.90;99.90;;;;;;5049147;28;20028;-79
2022/12/23 09:41:04;;;;;;;1999.90;999.90;;;10.90;99.90;;;;;;5032252;28;20029;-84
2022/12/23 09:43:50;;;;;;;1999.90;999.90;;;11.00;99.90;;;;;;5049036;28;20837;-85
2022/12/23 09:46:21;;;;;;;1999.90;999.90;;;11.00;99.90;;;;;;5046051;28;20507;-80
2022/12/23 09:48:59;;;;;;;1999.90;999.90;;;11.00;99.90;;;;;;5048543;28;20152;-77
2022/12/23 09:51:26;;;;;;;1999.90;999.90;;;11.00;99.90;;;;;;5046543;28;20098;-78
2022/12/23 09:54:04;;;;;;;1999.90;999.90;;;11.00;99.90;;;;;;5045858;28;20593;-80
2022/12/23 09:56:32;;;;;;;1999.90;999.90;;;10.90;99.90;;;;;;5047470;28;20021;-78
2022/12/23 09:59:23;;;;;;;1999.90;999.90;;;10.90;99.90;;;;;;5047231;28;20132;-80
2022/12/23 10:01:59;;;;;;;1999.90;999.90;;;11.00;99.90;;;;;;5043086;28;20033;-78
2022/12/23 10:04:45;;;;;;;1999.90;999.90;;;11.00;99.90;;;;;;5042664;28;20032;-78
2022/12/23 10:07:32;;;;;;;1999.90;999.90;;;11.00;99.90;;;;;;5047136;28;20078;-79
2022/12/23 10:10:17;;;;;;;1999.90;999.90;;;11.00;99.90;;;;;;5035504;28;20041;-78
2022/12/23 10:12:47;;;;;;;1999.90;999.90;;;11.00;99.90;;;;;;5048818;28;20719;-79
2022/12/23 10:15:35;;;;;;;1999.90;999.90;;;11.00;99.90;;;;;;4996395;28;20395;-79
2022/12/23 10:18:09;;;;;;;1999.90;999.90;;;11.00;99.90;;;;;;5045894;28;20061;-78
2022/12/23 10:20:52;;;;;;;1999.90;999.90;;;11.00;99.90;;;;;;5049172;28;20133;-79
2022/12/23 10:23:35;;;;;;;1999.90;999.90;;;11.00;99.90;;;;;;5045644;28;20458;-80
2022/12/23 10:26:08;;;;;;;1544.00;763.20;;;11.10;99.90;;;;;;5047755;28;20086;-78
2022/12/23 10:28:34;;;;;;;1999.90;999.90;;;11.10;99.90;;;;;;5044795;28;20052;-78
2022/12/23 10:31:04;;;;;;;1999.90;999.90;;;11.00;99.90;;;;;;5042740;28;20087;-78
2022/12/23 10:34:04;;;;;;;1999.90;999.90;;;11.00;99.90;;;;;;5048072;28;20037;-78
2022/12/23 10:36:47;;;;;;;1999.90;999.90;;;11.00;99.90;;;;;;5043032;28;20033;-78
2022/12/23 10:39:37;;;;;;;1999.90;999.90;;;11.10;99.90;;;;;;5045157;28;20124;-79
2022/12/23 10:42:20;;;;;;;1999.90;999.90;;;11.20;99.90;;;;;;5042592;28;20029;-79
2022/12/23 10:44:46;;;;;;;1999.90;999.90;;;11.20;99.90;;;;;;5046650;28;20037;-79
2022/12/23 10:47:35;;;;;;;1999.90;999.90;;;11.30;99.90;;;;;;5035141;28;20024;-79
2022/12/23 10:50:34;;;;;;;1999.90;999.90;;;11.30;99.90;;;;;;5029892;28;20068;-80
2022/12/23 10:53:04;;;;;;;1999.90;999.90;;;11.30;99.90;;;;;;5044415;28;20098;-78
2022/12/23 10:55:34;;;;;;;1999.90;999.90;;;11.30;99.90;;;;;;5046607;28;20029;-80
2022/12/23 10:58:13;;;;;;;1999.90;999.90;;;11.30;99.90;;;;;;5047057;28;20029;-79
2022/12/23 11:00:41;;;;;;;1113.22;553.17;;;11.20;99.90;;;;;;5027003;28;20045;-80
2022/12/23 11:03:16;;;;;;;1999.90;999.90;;;11.40;99.90;;;;;;5032278;28;20106;-81
2022/12/23 11:05:42;;;;;;;1187.20;536.75;;;11.40;99.90;;;;;;5046965;28;20028;-81
2022/12/23 11:08:09;;;;;;;1999.90;999.90;;;11.30;99.90;;;;;;5046700;28;20040;-81
2022/12/23 11:10:35;;;;;;;1999.90;999.90;;;11.30;99.90;;;;;;5052113;28;20067;-82
2022/12/23 11:13:02;;;;;;;1999.90;999.90;;;11.30;99.90;;;;;;5046856;28;20068;-83
2022/12/23 11:15:31;;;;;;;782.25;345.15;;;11.20;99.90;;;;;;5038289;28;20455;-78
2022/12/23 11:18:16;;;;;;;1650.80;801.90;;;11.20;99.90;;;;;;5049414;28;20051;-77
2022/12/23 11:20:45;;;;;;;1999.90;999.90;;;11.10;99.90;;;;;;5033403;28;20043;-79
2022/12/23 11:23:28;;;;;;;1999.90;999.90;;;11.20;99.90;;;;;;5031439;28;20032;-79
2022/12/23 11:26:10;;;;;;;1412.05;654.45;;;11.20;99.90;;;;;;5043568;28;20036;-78
2022/12/23 11:28:39;;;;;;;1085.15;531.03;;;11.20;99.90;;;;;;5038318;28;20037;-83
2022/12/23 11:31:13;;;;;;;1999.90;999.90;;;11.30;99.90;;;;;;5028160;28;20021;-79
2022/12/23 11:33:59;;;;;;;1999.90;999.90;;;11.20;99.90;;;;;;5044102;28;20044;-79
2022/12/23 11:36:27;;;;;;;1999.90;999.90;;;11.10;99.90;;;;;;5047771;28;20025;-82
2022/12/23 11:39:11;;;;;;;1999.90;999.90;;;11.20;99.90;;;;;;5050077;28;20120;-78
2022/12/23 11:41:36;;;;;;;1999.90;999.90;;;11.10;99.90;;;;;;5029142;28;20032;-80
2022/12/23 11:44:32;;;;;;;1999.90;999.90;;;11.20;99.90;;;;;;5046671;28;20083;-79
2022/12/23 11:47:38;;;;;;;1999.90;999.90;;;11.10;99.90;;;;;;5045489;28;20044;-86
2022/12/23 11:50:21;;;;;;;1999.90;999.90;;;11.20;99.90;;;;;;5045219;28;20044;-81
2022/12/23 11:52:54;;;;;;;1999.90;999.90;;;11.00;99.90;;;;;;5032834;28;20112;-80
2022/12/23 11:55:31;;;;;;;1999.90;999.90;;;11.00;99.90;;;;;;5042621;28;20090;-78
2022/12/23 11:58:00;;;;;;;1999.90;999.90;;;11.00;99.90;;;;;;5049050;28;20041;-85
2022/12/23 12:00:35;;;;;;;1999.90;999.90;;;10.90;99.90;;;;;;5044966;28;20050;-81
2022/12/23 12:03:07;;;;;;;1999.90;999.90;;;11.00;99.90;;;;;;5047706;28;20052;-87
2022/12/23 12:05:48;;;;;;;1999.90;999.90;;;11.00;99.90;;;;;;5028064;28;20024;-80
2022/12/23 12:08:18;;;;;;;1999.90;999.90;;;11.00;99.90;;;;;;5051575;28;20044;-86
2022/12/23 12:10:44;;;;;;;1999.90;999.90;;;10.90;99.90;;;;;;5051832;28;20040;-81
2022/12/23 12:13:22;;;;;;;1999.90;999.90;;;10.80;99.90;;;;;;5050249;28;20037;-80
2022/12/23 12:16:04;;;;;;;1999.90;999.90;;;10.80;99.90;;;;;;5046810;28;20119;-81
2022/12/23 12:18:31;;;;;;;1999.90;999.90;;;10.80;99.90;;;;;;5049242;28;20091;-84
2022/12/23 12:21:06;;;;;;;1999.90;999.90;;;10.70;99.90;;;;;;5049477;28;20047;-83
2022/12/23 12:24:03;;;;;;;1999.90;999.90;;;10.80;99.90;;;;;;5053584;28;20033;-82
2022/12/23 12:26:33;;;;;;;1999.90;999.90;;;10.70;99.90;;;;;;5046444;28;20186;-81
2022/12/23 12:29:06;;;;;;;1999.90;999.90;;;10.70;99.90;;;;;;5029791;28;20090;-80
2022/12/23 12:31:53;;;;;;;1999.90;999.90;;;10.80;99.90;;;;;;5047747;28;20323;-82
2022/12/23 12:34:27;;;;;;;1999.90;999.90;;;10.60;99.90;;;;;;5050053;28;20032;-81
2022/12/23 12:37:11;;;;;;;1999.90;999.90;;;10.60;99.90;;;;;;5052165;28;20494;-79
2022/12/23 12:39:42;;;;;;;1999.90;999.90;;;10.60;99.90;;;;;;5051207;28;20051;-80
2022/12/23 12:42:18;;;;;;;1999.90;999.90;;;10.60;99.90;;;;;;5046520;28;20135;-80
2022/12/23 12:45:22;;;;;;;1999.90;999.90;;;10.70;99.90;;;;;;5049483;28;20036;-79
2022/12/23 12:48:26;;;;;;;1999.90;999.90;;;10.80;99.90;;;;;;5045775;28;20037;-80
2022/12/23 12:51:06;;;;;;;1999.90;999.90;;;10.70;99.90;;;;;;5044513;28;20037;-79
2022/12/23 12:53:34;;;;;;;1999.90;999.90;;;10.80;99.90;;;;;;5050269;28;20107;-81
2022/12/23 12:56:32;;;;;;;1999.90;999.90;;;10.80;99.90;;;;;;5053574;28;20032;-77